createdAt,value
2023-11-02T10:19:42.121Z,69.83
2023-11-02T10:22:04.523Z,65.09
2023-11-02T10:24:33.486Z,60.39
2023-11-02T10:26:53.935Z,58.23
2023-11-02T10:29:14.602Z,56.06
2023-11-02T10:31:37.578Z,55.83
2023-11-02T10:34:01.491Z,54.35
2023-11-02T10:36:22.063Z,52.79
2023-11-02T10:38:44.169Z,51.75
2023-11-02T10:41:06.299Z,49.34
2023-11-02T10:43:29.200Z,48.73
2023-11-02T10:45:53.940Z,48.74
2023-11-02T10:48:18.499Z,48.00
2023-11-02T10:50:41.598Z,47.51
2023-11-02T10:53:08.503Z,46.44
2023-11-02T10:55:38.471Z,46.96
2023-11-02T10:58:05.129Z,46.50
2023-11-02T11:00:27.625Z,45.13
2023-11-02T11:02:50.295Z,44.73
2023-11-02T11:05:11.927Z,44.21
2023-11-02T11:07:40.740Z,43.02
2023-11-02T11:10:01.839Z,45.00
2023-11-02T11:12:24.261Z,44.10
2023-11-02T11:14:47.084Z,43.02
2023-11-02T11:17:07.817Z,42.31
2023-11-02T11:19:34.009Z,41.79
2023-11-02T11:21:56.145Z,40.72
2023-11-02T11:24:21.385Z,39.55
2023-11-02T11:26:51.454Z,38.84
2023-11-02T11:29:38.449Z,38.46
2023-11-02T11:31:59.679Z,39.38
2023-11-02T11:34:20.819Z,39.42
2023-11-02T11:36:41.547Z,39.74
2023-11-02T11:39:31.867Z,41.01
2023-11-02T11:41:52.460Z,40.62
2023-11-02T11:44:21.429Z,38.52
2023-11-02T11:46:46.772Z,37.64
2023-11-02T11:49:07.503Z,38.07
2023-11-02T11:51:42.761Z,38.38
2023-11-02T11:54:15.436Z,37.85
2023-11-02T11:56:36.163Z,36.89
2023-11-02T11:58:58.856Z,37.07
2023-11-02T12:01:20.988Z,35.83
2023-11-02T12:03:43.325Z,35.25
2023-11-02T12:06:11.364Z,37.38
2023-11-02T12:08:33.110Z,36.14
2023-11-02T12:10:56.984Z,35.93
2023-11-02T12:13:17.784Z,35.02
2023-11-02T12:15:51.915Z,34.42
2023-11-02T12:18:14.408Z,33.49
2023-11-02T12:20:37.488Z,32.34
2023-11-02T12:22:58.726Z,30.98
2023-11-02T12:25:19.425Z,31.73
2023-11-02T12:27:39.847Z,30.27
2023-11-02T12:30:00.981Z,30.51
2023-11-02T12:32:21.422Z,28.55
2023-11-02T12:34:42.025Z,28.30
2023-11-02T12:37:02.593Z,27.97
2023-11-02T12:39:23.329Z,27.71
2023-11-02T12:41:46.379Z,28.26
2023-11-02T12:44:15.713Z,28.44
2023-11-02T12:46:43.519Z,27.73
2023-11-02T12:49:18.968Z,27.56
2023-11-02T12:51:40.136Z,27.41
2023-11-02T12:54:09.352Z,27.83
2023-11-02T12:56:30.483Z,26.69
2023-11-02T12:58:59.906Z,27.24
2023-11-02T13:01:20.450Z,25.70
2023-11-02T13:03:59.938Z,25.28
2023-11-02T13:06:24.394Z,24.90
2023-11-02T13:08:45.374Z,25.25
2023-11-02T13:11:06.737Z,25.33
2023-11-02T13:13:28.416Z,25.15
2023-11-02T13:15:49.709Z,25.44
2023-11-02T13:18:10.779Z,24.42
2023-11-02T13:20:32.831Z,25.46
2023-11-02T13:22:53.425Z,25.15
2023-11-02T13:25:17.010Z,24.72
2023-11-02T13:27:38.337Z,23.67
2023-11-02T13:30:00.871Z,23.39
2023-11-02T13:32:21.670Z,23.72
2023-11-02T13:34:43.207Z,23.71
2023-11-02T13:37:04.105Z,23.86
2023-11-02T13:39:26.124Z,23.15
2023-11-02T13:41:46.980Z,22.89
2023-11-02T13:44:07.460Z,23.08
2023-11-02T13:46:29.426Z,22.71
2023-11-02T13:48:50.239Z,22.71
2023-11-02T13:51:11.274Z,23.26
2023-11-02T13:53:33.175Z,23.51
2023-11-02T13:55:55.110Z,22.78
2023-11-02T13:58:15.692Z,22.82
2023-11-02T14:00:36.743Z,22.37
2023-11-02T14:02:57.477Z,22.85
2023-11-02T14:05:18.812Z,23.15
2023-11-02T14:07:40.094Z,23.55
2023-11-02T14:10:00.940Z,23.70
2023-11-02T14:12:24.952Z,24.89
2023-11-02T14:14:45.487Z,24.68
2023-11-02T14:17:06.343Z,24.60
2023-11-02T14:19:27.227Z,25.13
2023-11-02T14:21:47.644Z,24.68
2023-11-02T14:24:08.810Z,24.57
2023-11-02T14:26:29.769Z,24.58
2023-11-02T14:28:51.667Z,25.10
2023-11-02T14:31:13.942Z,24.88
2023-11-02T14:33:34.356Z,24.58
2023-11-02T14:35:55.011Z,24.49
2023-11-02T14:38:15.748Z,24.39
2023-11-02T14:40:37.559Z,24.66
2023-11-02T14:43:01.184Z,25.27
2023-11-02T14:45:21.800Z,25.23
2023-11-02T14:47:43.940Z,25.19
2023-11-02T14:50:05.332Z,24.90
2023-11-02T14:52:26.139Z,25.16
2023-11-02T14:54:53.331Z,24.67
2023-11-02T14:57:19.464Z,24.83
2023-11-02T14:59:40.169Z,25.39
2023-11-02T15:02:02.996Z,25.68
2023-11-02T15:04:25.186Z,25.85
2023-11-02T15:06:46.412Z,26.00
2023-11-02T15:09:10.669Z,25.66
2023-11-02T15:11:31.505Z,25.34
2023-11-02T15:13:52.060Z,25.49
2023-11-02T15:16:12.792Z,25.60
2023-11-02T15:18:33.555Z,25.24
2023-11-02T15:20:54.136Z,25.94
2023-11-02T15:23:14.857Z,25.49
2023-11-02T15:25:35.373Z,25.71
2023-11-02T15:27:55.789Z,25.05
2023-11-02T15:30:17.476Z,25.29
2023-11-02T15:32:41.356Z,25.75
2023-11-02T15:35:01.982Z,25.52
2023-11-02T15:37:27.161Z,26.23
2023-11-02T15:39:48.106Z,26.13
2023-11-02T15:42:11.013Z,25.80
2023-11-02T15:44:31.964Z,26.23
2023-11-02T15:46:53.284Z,25.49
2023-11-02T15:49:14.264Z,25.93
2023-11-02T15:51:35.773Z,26.21
2023-11-02T15:53:56.558Z,25.93
2023-11-02T15:56:17.939Z,26.16
2023-11-02T15:58:38.908Z,26.25
2023-11-02T16:00:59.857Z,26.83
2023-11-02T16:03:20.780Z,26.39
2023-11-02T16:05:41.317Z,26.53
2023-11-02T16:08:01.865Z,26.14
2023-11-02T16:10:22.367Z,26.82
2023-11-02T16:12:43.379Z,27.02
2023-11-02T16:15:06.070Z,27.13
2023-11-02T16:17:27.245Z,27.13
2023-11-02T16:19:47.925Z,27.68
2023-11-02T16:22:08.371Z,27.51
2023-11-02T16:24:28.925Z,27.57
2023-11-02T16:26:50.876Z,28.08
2023-11-02T16:29:12.020Z,27.36
2023-11-02T16:31:32.585Z,27.68
2023-11-02T16:33:56.284Z,27.83
2023-11-02T16:36:46.157Z,27.71
2023-11-02T16:39:08.019Z,27.90
2023-11-02T16:41:29.633Z,27.58
2023-11-02T16:43:50.627Z,28.13
2023-11-02T16:46:12.009Z,28.17
2023-11-02T16:48:32.858Z,27.74
2023-11-02T16:50:53.214Z,27.35
2023-11-02T16:53:13.690Z,27.87
2023-11-02T16:55:35.598Z,27.89
2023-11-02T16:57:56.411Z,28.12
2023-11-02T17:00:18.503Z,27.33
2023-11-02T17:02:42.895Z,28.20
2023-11-02T17:05:03.697Z,27.73
2023-11-02T17:07:24.773Z,27.09
2023-11-02T17:09:45.317Z,27.18
2023-11-02T17:12:07.796Z,26.99
2023-11-02T17:14:28.494Z,26.63
2023-11-02T17:16:48.926Z,26.75
2023-11-02T17:19:11.024Z,26.97
2023-11-02T17:21:32.428Z,26.58
2023-11-02T17:23:57.373Z,27.12
2023-11-02T17:26:18.306Z,26.99
2023-11-02T17:28:40.929Z,27.66
2023-11-02T17:31:01.860Z,27.37
2023-11-02T17:33:22.501Z,27.25
2023-11-02T17:35:43.210Z,27.54
2023-11-02T17:38:04.049Z,27.45
2023-11-02T17:40:24.517Z,27.93
2023-11-02T17:42:45.257Z,27.89
2023-11-02T17:45:07.048Z,27.54
2023-11-02T17:47:27.928Z,26.91
2023-11-02T17:49:48.715Z,26.65
2023-11-02T17:52:09.167Z,26.67
2023-11-02T17:54:29.744Z,26.23
2023-11-02T17:56:50.282Z,26.53
2023-11-02T17:59:11.328Z,26.53
2023-11-02T18:01:32.009Z,26.41
2023-11-02T18:03:52.657Z,26.25
2023-11-02T18:06:13.316Z,27.17
2023-11-02T18:08:34.200Z,27.56
2023-11-02T18:10:54.900Z,27.72
2023-11-02T18:13:15.657Z,28.64
2023-11-02T18:15:37.370Z,29.26
2023-11-02T18:17:58.153Z,28.25
2023-11-02T18:20:19.145Z,28.53
2023-11-02T18:22:40.415Z,28.92
2023-11-02T18:25:01.036Z,29.03
2023-11-02T18:27:21.814Z,28.67
2023-11-02T18:29:42.359Z,28.77
2023-11-02T18:32:04.209Z,28.84
2023-11-02T18:34:24.730Z,28.53
2023-11-02T18:36:45.302Z,29.82
2023-11-02T18:39:05.785Z,29.24
2023-11-02T18:41:27.149Z,28.73
2023-11-02T18:43:47.560Z,28.79
2023-11-02T18:46:17.805Z,29.32
2023-11-02T18:48:38.419Z,29.31
2023-11-02T18:50:58.881Z,29.53
2023-11-02T18:53:19.267Z,30.17
2023-11-02T18:55:40.057Z,29.54
2023-11-02T18:58:00.792Z,30.25
2023-11-02T19:00:22.191Z,30.12
2023-11-02T19:02:43.002Z,30.69
2023-11-02T19:05:06.461Z,30.51
2023-11-02T19:07:27.196Z,30.47
2023-11-02T19:09:48.157Z,29.95
2023-11-02T19:12:09.040Z,29.83
2023-11-02T19:14:33.437Z,30.52
2023-11-02T19:16:54.070Z,30.38
2023-11-02T19:19:14.867Z,29.95
2023-11-02T19:21:39.560Z,29.83
2023-11-02T19:24:00.120Z,29.92
2023-11-02T19:26:22.796Z,29.48
2023-11-02T19:28:43.379Z,29.00
2023-11-02T19:31:04.197Z,29.49
2023-11-02T19:33:24.885Z,29.19
2023-11-02T19:35:47.334Z,29.75
2023-11-02T19:38:07.969Z,29.14
2023-11-02T19:40:28.936Z,29.36
2023-11-02T19:42:50.147Z,29.15
2023-11-02T19:45:11.106Z,29.52
2023-11-02T19:47:31.905Z,29.37
2023-11-02T19:49:52.840Z,29.04
2023-11-02T19:52:13.860Z,29.25
2023-11-02T19:54:34.699Z,29.54
2023-11-02T19:56:56.978Z,29.05
2023-11-02T19:59:17.515Z,28.86
2023-11-02T20:01:38.165Z,28.78
2023-11-02T20:04:00.506Z,28.75
2023-11-02T20:06:20.904Z,28.62
2023-11-02T20:08:42.355Z,28.79
2023-11-02T20:11:04.429Z,28.69
2023-11-02T20:13:26.369Z,28.73
2023-11-02T20:15:48.112Z,28.39
2023-11-02T20:18:08.903Z,28.82
2023-11-02T20:20:31.010Z,28.76
2023-11-02T20:22:51.836Z,28.76
2023-11-02T20:25:12.669Z,28.83
2023-11-02T20:27:33.275Z,28.32
2023-11-02T20:29:53.671Z,28.88
2023-11-02T20:32:14.342Z,28.79
2023-11-02T20:34:35.142Z,28.72
2023-11-02T20:36:55.984Z,29.30
2023-11-02T20:39:16.398Z,28.83
2023-11-02T20:41:36.993Z,29.31
2023-11-02T20:43:57.588Z,29.16
2023-11-02T20:46:19.566Z,29.21
2023-11-02T20:48:40.443Z,28.94
2023-11-02T20:51:01.326Z,28.95
2023-11-02T20:53:22.638Z,29.09
2023-11-02T20:55:43.183Z,29.37
2023-11-02T20:58:03.937Z,29.14
2023-11-02T21:00:24.636Z,29.83
2023-11-02T21:02:45.412Z,29.19
2023-11-02T21:05:06.716Z,29.27
2023-11-02T21:07:27.901Z,29.05
2023-11-02T21:09:48.987Z,29.57
2023-11-02T21:12:10.858Z,29.77
2023-11-02T21:14:31.357Z,29.79
2023-11-02T21:16:52.460Z,29.76
2023-11-02T21:19:13.379Z,30.19
2023-11-02T21:21:34.091Z,30.34
2023-11-02T21:23:54.813Z,30.63
2023-11-02T21:26:15.370Z,30.60
2023-11-02T21:28:35.764Z,30.47
2023-11-02T21:30:56.388Z,30.29
2023-11-02T21:33:16.925Z,30.91
2023-11-02T21:35:37.373Z,31.03
2023-11-02T21:37:58.117Z,31.42
2023-11-02T21:40:19.028Z,31.40
2023-11-02T21:42:40.652Z,31.40
2023-11-02T21:45:01.275Z,31.24
2023-11-02T21:47:21.990Z,31.30
2023-11-02T21:49:42.805Z,30.93
2023-11-02T21:52:03.783Z,31.19
2023-11-02T21:54:24.222Z,31.37
2023-11-02T21:56:44.775Z,30.86
2023-11-02T21:59:12.374Z,30.60
2023-11-02T22:01:33.037Z,31.26
2023-11-02T22:03:53.575Z,30.81
2023-11-02T22:06:13.997Z,30.88
2023-11-02T22:08:34.638Z,31.44
2023-11-02T22:10:55.245Z,30.98
2023-11-02T22:13:15.929Z,31.41
2023-11-02T22:15:36.499Z,31.42
2023-11-02T22:17:57.485Z,31.15
2023-11-02T22:20:18.113Z,30.63
2023-11-02T22:22:40.014Z,30.58
2023-11-02T22:25:00.863Z,31.33
2023-11-02T22:27:21.613Z,31.48
2023-11-02T22:29:42.375Z,31.35
2023-11-02T22:32:03.176Z,30.45
2023-11-02T22:34:24.051Z,30.46
2023-11-02T22:36:44.886Z,30.89
2023-11-02T22:39:05.809Z,30.21
2023-11-02T22:41:27.059Z,30.46
2023-11-02T22:43:48.191Z,30.45
2023-11-02T22:46:09.261Z,31.47
2023-11-02T22:48:30.301Z,31.01
2023-11-02T22:50:51.071Z,31.34
2023-11-02T22:53:11.591Z,31.02
2023-11-02T22:55:32.686Z,31.78
2023-11-02T22:57:53.397Z,31.29
2023-11-02T23:00:24.788Z,30.97
2023-11-02T23:02:45.564Z,30.79
2023-11-02T23:05:07.048Z,30.79
2023-11-02T23:07:27.895Z,30.73
2023-11-02T23:09:48.508Z,30.72
2023-11-02T23:12:09.341Z,31.03
2023-11-02T23:14:30.022Z,30.88
2023-11-02T23:16:52.191Z,30.96
2023-11-02T23:19:12.751Z,30.69
2023-11-02T23:21:33.485Z,30.84
2023-11-02T23:23:54.117Z,30.72
2023-11-02T23:26:15.053Z,31.00
2023-11-02T23:28:36.803Z,31.07
2023-11-02T23:30:57.345Z,31.32
2023-11-02T23:33:17.960Z,31.07
2023-11-02T23:35:38.407Z,31.34
2023-11-02T23:37:59.561Z,31.45
2023-11-02T23:40:20.821Z,31.11
2023-11-02T23:42:43.051Z,30.87
2023-11-02T23:45:04.115Z,31.08
2023-11-02T23:47:25.164Z,30.97
2023-11-02T23:49:45.668Z,31.23
2023-11-02T23:52:06.379Z,31.24
2023-11-02T23:54:27.024Z,31.26
2023-11-02T23:56:48.032Z,31.15
2023-11-02T23:59:08.457Z,30.64
